sensor_id;sensor_type;location;lat;lon;timestamp;pressure;altitude;pressure_sealevel;temperature;humidity
73267;BME280;61495;53.400;7.608;2023-03-14T00:01:10;98666.34;;;8.76;88.26
73267;BME280;61495;53.400;7.608;2023-03-14T00:03:36;98667.44;;;8.75;88.56
73267;BME280;61495;53.400;7.608;2023-03-14T00:06:03;98677.03;;;8.76;88.44
73267;BME280;61495;53.400;7.608;2023-03-14T00:08:28;98673.81;;;8.74;88.55
73267;BME280;61495;53.400;7.608;2023-03-14T00:10:53;98669.28;;;8.75;89.30
73267;BME280;61495;53.400;7.608;2023-03-14T00:13:25;98651.31;;;8.70;88.68
73267;BME280;61495;53.400;7.608;2023-03-14T00:15:50;98652.22;;;8.76;89.12
73267;BME280;61495;53.400;7.608;2023-03-14T00:18:16;98637.97;;;8.70;88.49
73267;BME280;61495;53.400;7.608;2023-03-14T00:20:41;98631.84;;;8.70;88.90
73267;BME280;61495;53.400;7.608;2023-03-14T00:23:07;98622.19;;;8.64;88.72
73267;BME280;61495;53.400;7.608;2023-03-14T00:25:35;98646.31;;;8.74;88.75
73267;BME280;61495;53.400;7.608;2023-03-14T00:28:00;98623.22;;;8.63;89.18
73267;BME280;61495;53.400;7.608;2023-03-14T00:30:26;98634.75;;;8.68;89.66
73267;BME280;61495;53.400;7.608;2023-03-14T00:32:51;98640.09;;;8.68;89.44
73267;BME280;61495;53.400;7.608;2023-03-14T00:35:17;98640.09;;;8.68;89.08
73267;BME280;61495;53.400;7.608;2023-03-14T00:37:42;98646.00;;;8.70;89.13
73267;BME280;61495;53.400;7.608;2023-03-14T00:40:08;98656.94;;;8.69;89.05
73267;BME280;61495;53.400;7.608;2023-03-14T00:42:34;98651.31;;;8.70;89.24
73267;BME280;61495;53.400;7.608;2023-03-14T00:45:00;98655.94;;;8.75;89.28
73267;BME280;61495;53.400;7.608;2023-03-14T00:47:25;98640.97;;;8.74;89.19
73267;BME280;61495;53.400;7.608;2023-03-14T00:49:51;98636.44;;;8.74;89.39
73267;BME280;61495;53.400;7.608;2023-03-14T00:52:16;98623.91;;;8.75;89.33
73267;BME280;61495;53.400;7.608;2023-03-14T00:54:42;98629.56;;;8.78;89.41
73267;BME280;61495;53.400;7.608;2023-03-14T00:57:08;98617.56;;;8.81;89.58
73267;BME280;61495;53.400;7.608;2023-03-14T00:59:33;98617.31;;;8.82;89.51
73267;BME280;61495;53.400;7.608;2023-03-14T01:01:59;98603.94;;;8.82;89.83
73267;BME280;61495;53.400;7.608;2023-03-14T01:04:24;98601.53;;;8.81;89.71
73267;BME280;61495;53.400;7.608;2023-03-14T01:06:50;98599.75;;;8.86;89.39
73267;BME280;61495;53.400;7.608;2023-03-14T01:09:15;98587.69;;;8.84;89.48
73267;BME280;61495;53.400;7.608;2023-03-14T01:11:47;98593.09;;;8.89;89.58
73267;BME280;61495;53.400;7.608;2023-03-14T01:14:13;98589.66;;;8.93;89.40
73267;BME280;61495;53.400;7.608;2023-03-14T01:16:39;98590.75;;;8.98;89.56
73267;BME280;61495;53.400;7.608;2023-03-14T01:19:05;98577.69;;;8.96;89.56
73267;BME280;61495;53.400;7.608;2023-03-14T01:21:33;98588.09;;;8.98;89.73
73267;BME280;61495;53.400;7.608;2023-03-14T01:24:00;98584.41;;;9.04;89.61
73267;BME280;61495;53.400;7.608;2023-03-14T01:26:29;98586.84;;;9.05;89.49
73267;BME280;61495;53.400;7.608;2023-03-14T01:28:55;98573.50;;;9.05;89.86
73267;BME280;61495;53.400;7.608;2023-03-14T01:31:20;98574.03;;;9.07;89.53
73267;BME280;61495;53.400;7.608;2023-03-14T01:33:46;98574.59;;;9.09;89.44
73267;BME280;61495;53.400;7.608;2023-03-14T01:36:12;98580.50;;;9.11;89.52
73267;BME280;61495;53.400;7.608;2023-03-14T01:38:38;98577.88;;;9.16;89.33
73267;BME280;61495;53.400;7.608;2023-03-14T01:41:06;98574.38;;;9.16;89.74
73267;BME280;61495;53.400;7.608;2023-03-14T01:43:31;98568.81;;;9.17;89.80
73267;BME280;61495;53.400;7.608;2023-03-14T01:51:27;98576.34;;;9.25;90.25
73267;BME280;61495;53.400;7.608;2023-03-14T01:54:19;98567.28;;;9.26;90.66
73267;BME280;61495;53.400;7.608;2023-03-14T01:56:46;98556.09;;;9.29;90.49
73267;BME280;61495;53.400;7.608;2023-03-14T01:59:14;98575.34;;;9.31;90.96
73267;BME280;61495;53.400;7.608;2023-03-14T02:01:43;98546.97;;;9.25;91.21
73267;BME280;61495;53.400;7.608;2023-03-14T02:04:09;98545.66;;;9.33;90.97
73267;BME280;61495;53.400;7.608;2023-03-14T02:06:52;98551.59;;;9.35;91.63
73267;BME280;61495;53.400;7.608;2023-03-14T02:09:21;98570.56;;;9.38;91.94
73267;BME280;61495;53.400;7.608;2023-03-14T02:11:46;98571.69;;;9.42;91.98
73267;BME280;61495;53.400;7.608;2023-03-14T02:14:20;98560.19;;;9.42;92.24
73267;BME280;61495;53.400;7.608;2023-03-14T02:16:50;98559.63;;;9.40;92.20
73267;BME280;61495;53.400;7.608;2023-03-14T02:19:17;98557.50;;;9.42;92.32
73267;BME280;61495;53.400;7.608;2023-03-14T02:24:35;98561.03;;;9.47;92.41
73267;BME280;61495;53.400;7.608;2023-03-14T02:27:14;98555.13;;;9.45;92.76
73267;BME280;61495;53.400;7.608;2023-03-14T02:29:52;98570.16;;;9.52;92.80
73267;BME280;61495;53.400;7.608;2023-03-14T02:32:20;98565.63;;;9.52;93.05
73267;BME280;61495;53.400;7.608;2023-03-14T02:34:50;98555.44;;;9.49;92.70
73267;BME280;61495;53.400;7.608;2023-03-14T02:37:19;98557.84;;;9.50;92.69
73267;BME280;61495;53.400;7.608;2023-03-14T02:39:46;98553.88;;;9.53;93.06
73267;BME280;61495;53.400;7.608;2023-03-14T02:42:14;98547.16;;;9.50;92.86
73267;BME280;61495;53.400;7.608;2023-03-14T02:44:52;98548.25;;;9.55;93.21
73267;BME280;61495;53.400;7.608;2023-03-14T02:47:20;98545.84;;;9.53;92.75
73267;BME280;61495;53.400;7.608;2023-03-14T02:49:47;98543.97;;;9.54;93.03
73267;BME280;61495;53.400;7.608;2023-03-14T02:52:13;98536.97;;;9.47;92.89
73267;BME280;61495;53.400;7.608;2023-03-14T02:54:38;98544.22;;;9.52;92.92
73267;BME280;61495;53.400;7.608;2023-03-14T02:57:04;98534.56;;;9.46;92.87
73267;BME280;61495;53.400;7.608;2023-03-14T02:59:29;98549.56;;;9.52;92.96
73267;BME280;61495;53.400;7.608;2023-03-14T03:01:54;98547.41;;;9.49;92.94
73267;BME280;61495;53.400;7.608;2023-03-14T03:04:20;98540.72;;;9.46;92.59
73267;BME280;61495;53.400;7.608;2023-03-14T03:06:45;98541.78;;;9.45;92.38
73267;BME280;61495;53.400;7.608;2023-03-14T03:09:11;98535.88;;;9.43;92.42
73267;BME280;61495;53.400;7.608;2023-03-14T03:11:39;98542.59;;;9.46;92.48
73267;BME280;61495;53.400;7.608;2023-03-14T03:14:04;98547.94;;;9.46;92.40
73267;BME280;61495;53.400;7.608;2023-03-14T03:16:30;98546.00;;;9.41;92.35
73267;BME280;61495;53.400;7.608;2023-03-14T03:18:55;98535.59;;;9.40;92.32
73267;BME280;61495;53.400;7.608;2023-03-14T03:21:20;98539.88;;;9.41;92.21
73267;BME280;61495;53.400;7.608;2023-03-14T03:23:49;98542.56;;;9.41;92.24
73267;BME280;61495;53.400;7.608;2023-03-14T03:26:14;98547.09;;;9.40;92.18
73267;BME280;61495;53.400;7.608;2023-03-14T03:28:39;98540.13;;;9.39;91.94
73267;BME280;61495;53.400;7.608;2023-03-14T03:31:11;98542.25;;;9.37;91.75
73267;BME280;61495;53.400;7.608;2023-03-14T03:33:37;98526.72;;;9.34;91.69
73267;BME280;61495;53.400;7.608;2023-03-14T03:36:03;98525.09;;;9.33;91.66
73267;BME280;61495;53.400;7.608;2023-03-14T03:38:28;98527.53;;;9.35;91.32
73267;BME280;61495;53.400;7.608;2023-03-14T03:40:54;98531.78;;;9.31;91.38
73267;BME280;61495;53.400;7.608;2023-03-14T03:43:22;98531.25;;;9.34;91.07
73267;BME280;61495;53.400;7.608;2023-03-14T03:45:48;98529.88;;;9.26;90.99
73267;BME280;61495;53.400;7.608;2023-03-14T03:48:13;98528.81;;;9.27;91.21
73267;BME280;61495;53.400;7.608;2023-03-14T03:50:44;98509.22;;;9.17;91.20
73267;BME280;61495;53.400;7.608;2023-03-14T03:53:10;98507.09;;;9.19;91.23
73267;BME280;61495;53.400;7.608;2023-03-14T03:55:35;98521.28;;;9.24;90.95
73267;BME280;61495;53.400;7.608;2023-03-14T03:58:00;98516.16;;;9.18;91.21
73267;BME280;61495;53.400;7.608;2023-03-14T04:00:26;98527.97;;;9.22;91.30
73267;BME280;61495;53.400;7.608;2023-03-14T04:02:51;98510.53;;;9.14;91.07
73267;BME280;61495;53.400;7.608;2023-03-14T04:05:16;98519.09;;;9.16;91.31
73267;BME280;61495;53.400;7.608;2023-03-14T04:07:42;98522.81;;;9.15;91.08
73267;BME280;61495;53.400;7.608;2023-03-14T04:10:08;98513.22;;;9.14;91.34
73267;BME280;61495;53.400;7.608;2023-03-14T04:12:39;98529.25;;;9.14;91.09
73267;BME280;61495;53.400;7.608;2023-03-14T04:15:05;98530.84;;;9.15;91.06
73267;BME280;61495;53.400;7.608;2023-03-14T04:17:31;98523.63;;;9.16;91.26
73267;BME280;61495;53.400;7.608;2023-03-14T04:19:56;98530.28;;;9.13;91.54
73267;BME280;61495;53.400;7.608;2023-03-14T04:22:21;98528.44;;;9.14;91.56
73267;BME280;61495;53.400;7.608;2023-03-14T04:24:47;98523.59;;;9.11;91.66
73267;BME280;61495;53.400;7.608;2023-03-14T04:27:12;98534.00;;;9.12;92.02
73267;BME280;61495;53.400;7.608;2023-03-14T04:29:39;98527.59;;;9.08;91.94
73267;BME280;61495;53.400;7.608;2023-03-14T04:32:05;98527.84;;;9.12;92.24
73267;BME280;61495;53.400;7.608;2023-03-14T04:34:30;98517.41;;;9.05;92.16
73267;BME280;61495;53.400;7.608;2023-03-14T04:36:56;98521.16;;;9.09;92.57
73267;BME280;61495;53.400;7.608;2023-03-14T04:39:21;98511.00;;;9.06;92.54
73267;BME280;61495;53.400;7.608;2023-03-14T04:41:52;98520.13;;;9.10;92.81
73267;BME280;61495;53.400;7.608;2023-03-14T04:44:17;98519.00;;;9.06;92.96
73267;BME280;61495;53.400;7.608;2023-03-14T04:46:43;98517.94;;;9.07;92.93
73267;BME280;61495;53.400;7.608;2023-03-14T04:49:08;98511.56;;;9.08;93.48
73267;BME280;61495;53.400;7.608;2023-03-14T04:51:33;98519.00;;;9.06;92.93
73267;BME280;61495;53.400;7.608;2023-03-14T04:53:59;98509.63;;;9.04;93.62
73267;BME280;61495;53.400;7.608;2023-03-14T04:56:24;98506.44;;;9.02;93.24
73267;BME280;61495;53.400;7.608;2023-03-14T04:58:50;98513.13;;;9.04;93.14
73267;BME280;61495;53.400;7.608;2023-03-14T05:01:15;98515.75;;;8.99;93.70
73267;BME280;61495;53.400;7.608;2023-03-14T05:03:41;98513.09;;;8.99;93.79
73267;BME280;61495;53.400;7.608;2023-03-14T05:06:06;98520.81;;;9.01;93.28
73267;BME280;61495;53.400;7.608;2023-03-14T05:08:32;98515.19;;;8.97;94.08
73267;BME280;61495;53.400;7.608;2023-03-14T05:10:57;98511.47;;;8.98;93.87
73267;BME280;61495;53.400;7.608;2023-03-14T05:13:23;98511.47;;;8.98;94.31
73267;BME280;61495;53.400;7.608;2023-03-14T05:15:49;98514.13;;;8.98;94.18
73267;BME280;61495;53.400;7.608;2023-03-14T05:18:18;98497.25;;;8.92;94.62
73267;BME280;61495;53.400;7.608;2023-03-14T05:20:44;98508.25;;;8.96;93.86
73267;BME280;61495;53.400;7.608;2023-03-14T05:23:09;98498.88;;;8.93;94.18
73267;BME280;61495;53.400;7.608;2023-03-14T05:25:35;98491.63;;;8.89;94.43
73267;BME280;61495;53.400;7.608;2023-03-14T05:28:00;98486.28;;;8.89;94.28
73267;BME280;61495;53.400;7.608;2023-03-14T05:30:26;98495.34;;;8.88;94.61
73267;BME280;61495;53.400;7.608;2023-03-14T05:32:53;98493.75;;;8.87;94.24
73267;BME280;61495;53.400;7.608;2023-03-14T05:35:18;98490.50;;;8.85;94.34
73267;BME280;61495;53.400;7.608;2023-03-14T05:37:44;98494.25;;;8.84;95.35
73267;BME280;61495;53.400;7.608;2023-03-14T05:40:10;98484.06;;;8.81;94.76
73267;BME280;61495;53.400;7.608;2023-03-14T05:42:39;98495.84;;;8.85;95.31
73267;BME280;61495;53.400;7.608;2023-03-14T05:45:05;98495.06;;;8.84;95.21
73267;BME280;61495;53.400;7.608;2023-03-14T05:47:30;98492.09;;;8.81;95.38
73267;BME280;61495;53.400;7.608;2023-03-14T05:49:56;98486.13;;;8.74;94.94
73267;BME280;61495;53.400;7.608;2023-03-14T05:52:21;98489.94;;;8.78;95.47
73267;BME280;61495;53.400;7.608;2023-03-14T05:54:47;98480.56;;;8.75;94.80
73267;BME280;61495;53.400;7.608;2023-03-14T05:57:12;98487.25;;;8.78;94.73
73267;BME280;61495;53.400;7.608;2023-03-14T05:59:38;98486.94;;;8.74;95.31
73267;BME280;61495;53.400;7.608;2023-03-14T06:02:04;98486.72;;;8.76;94.59
73267;BME280;61495;53.400;7.608;2023-03-14T06:04:29;98486.97;;;8.79;95.02
73267;BME280;61495;53.400;7.608;2023-03-14T06:06:54;98481.38;;;8.76;95.76
73267;BME280;61495;53.400;7.608;2023-03-14T06:09:20;98481.88;;;8.73;95.04
73267;BME280;61495;53.400;7.608;2023-03-14T06:11:53;98474.06;;;8.66;95.35
73267;BME280;61495;53.400;7.608;2023-03-14T06:14:18;98477.63;;;8.77;95.97
73267;BME280;61495;53.400;7.608;2023-03-14T06:16:43;98469.06;;;8.75;95.25
73267;BME280;61495;53.400;7.608;2023-03-14T06:19:09;98466.41;;;8.75;95.56
73267;BME280;61495;53.400;7.608;2023-03-14T06:21:35;98478.94;;;8.74;95.41
73267;BME280;61495;53.400;7.608;2023-03-14T06:24:01;98483.47;;;8.74;95.70
73267;BME280;61495;53.400;7.608;2023-03-14T06:26:26;98492.84;;;8.76;95.93
73267;BME280;61495;53.400;7.608;2023-03-14T06:28:52;98479.22;;;8.73;96.36
73267;BME280;61495;53.400;7.608;2023-03-14T06:31:18;98485.31;;;8.73;95.62
73267;BME280;61495;53.400;7.608;2023-03-14T06:33:44;98488.81;;;8.74;96.41
73267;BME280;61495;53.400;7.608;2023-03-14T06:36:09;98488.81;;;8.74;96.72
73267;BME280;61495;53.400;7.608;2023-03-14T06:38:35;98491.97;;;8.71;96.71
73267;BME280;61495;53.400;7.608;2023-03-14T06:41:05;98484.47;;;8.68;96.03
73267;BME280;61495;53.400;7.608;2023-03-14T06:43:30;98483.16;;;8.70;96.49
73267;BME280;61495;53.400;7.608;2023-03-14T06:45:56;98487.72;;;8.70;96.37
73267;BME280;61495;53.400;7.608;2023-03-14T06:48:21;98487.72;;;8.70;96.45
73267;BME280;61495;53.400;7.608;2023-03-14T06:50:48;98474.81;;;8.62;95.85
73267;BME280;61495;53.400;7.608;2023-03-14T06:53:13;98481.78;;;8.63;96.54
73267;BME280;61495;53.400;7.608;2023-03-14T06:55:39;98483.13;;;8.65;96.90
73267;BME280;61495;53.400;7.608;2023-03-14T06:58:04;98496.47;;;8.65;97.31
73267;BME280;61495;53.400;7.608;2023-03-14T07:00:32;98495.66;;;8.65;96.80
73267;BME280;61495;53.400;7.608;2023-03-14T07:02:57;98507.44;;;8.69;97.48
73267;BME280;61495;53.400;7.608;2023-03-14T07:05:22;98516.50;;;8.68;97.17
73267;BME280;61495;53.400;7.608;2023-03-14T07:07:48;98499.41;;;8.64;97.11
73267;BME280;61495;53.400;7.608;2023-03-14T07:10:13;98512.78;;;8.69;96.96
73267;BME280;61495;53.400;7.608;2023-03-14T07:12:39;98508.47;;;8.63;97.13
73267;BME280;61495;53.400;7.608;2023-03-14T07:15:04;98530.94;;;8.67;97.17
73267;BME280;61495;53.400;7.608;2023-03-14T07:17:30;98540.47;;;8.63;97.97
73267;BME280;61495;53.400;7.608;2023-03-14T07:19:55;98553.06;;;8.67;98.04
73267;BME280;61495;53.400;7.608;2023-03-14T07:22:20;98555.50;;;8.69;97.80
73267;BME280;61495;53.400;7.608;2023-03-14T07:24:46;98569.88;;;8.68;97.76
73267;BME280;61495;53.400;7.608;2023-03-14T07:27:11;98578.97;;;8.67;97.51
73267;BME280;61495;53.400;7.608;2023-03-14T07:29:36;98617.13;;;8.67;98.48
73267;BME280;61495;53.400;7.608;2023-03-14T07:32:02;98640.91;;;8.69;97.59
73267;BME280;61495;53.400;7.608;2023-03-14T07:34:28;98651.53;;;8.64;97.81
73267;BME280;61495;53.400;7.608;2023-03-14T07:36:53;98657.09;;;8.62;96.33
73267;BME280;61495;53.400;7.608;2023-03-14T07:39:18;98667.47;;;8.59;95.66
73267;BME280;61495;53.400;7.608;2023-03-14T07:41:47;98686.72;;;8.61;96.02
73267;BME280;61495;53.400;7.608;2023-03-14T07:44:12;98713.31;;;8.56;94.72
73267;BME280;61495;53.400;7.608;2023-03-14T07:46:38;98720.22;;;8.52;95.11
73267;BME280;61495;53.400;7.608;2023-03-14T07:49:03;98737.78;;;8.48;94.11
73267;BME280;61495;53.400;7.608;2023-03-14T07:51:28;98740.38;;;8.43;94.74
73267;BME280;61495;53.400;7.608;2023-03-14T07:53:54;98756.28;;;8.37;93.82
73267;BME280;61495;53.400;7.608;2023-03-14T07:56:19;98796.06;;;8.39;94.60
73267;BME280;61495;53.400;7.608;2023-03-14T07:58:45;98790.91;;;8.32;94.27
73267;BME280;61495;53.400;7.608;2023-03-14T08:01:11;98809.50;;;8.27;93.98
73267;BME280;61495;53.400;7.608;2023-03-14T08:03:36;98829.66;;;8.23;93.63
73267;BME280;61495;53.400;7.608;2023-03-14T08:06:01;98847.72;;;8.05;92.35
73267;BME280;61495;53.400;7.608;2023-03-14T08:08:27;98850.66;;;8.03;92.93
73267;BME280;61495;53.400;7.608;2023-03-14T08:10:52;98871.16;;;8.03;93.51
73267;BME280;61495;53.400;7.608;2023-03-14T08:13:17;98881.50;;;7.99;92.70
73267;BME280;61495;53.400;7.608;2023-03-14T08:15:47;98903.31;;;7.96;93.39
73267;BME280;61495;53.400;7.608;2023-03-14T08:18:13;98896.16;;;7.85;93.07
73267;BME280;61495;53.400;7.608;2023-03-14T08:20:38;98900.34;;;7.81;92.93
73267;BME280;61495;53.400;7.608;2023-03-14T08:23:04;98910.69;;;7.77;93.13
73267;BME280;61495;53.400;7.608;2023-03-14T08:25:29;98923.09;;;7.72;92.75
73267;BME280;61495;53.400;7.608;2023-03-14T08:27:55;98927.50;;;7.55;91.85
73267;BME280;61495;53.400;7.608;2023-03-14T08:30:21;98943.97;;;7.52;92.68
73267;BME280;61495;53.400;7.608;2023-03-14T08:32:47;98933.78;;;7.49;92.45
73267;BME280;61495;53.400;7.608;2023-03-14T08:35:13;98948.63;;;7.45;91.96
73267;BME280;61495;53.400;7.608;2023-03-14T08:37:38;98953.25;;;7.38;92.46
73267;BME280;61495;53.400;7.608;2023-03-14T08:40:05;98960.31;;;7.32;92.32
73267;BME280;61495;53.400;7.608;2023-03-14T08:42:40;98977.13;;;7.33;92.46
73267;BME280;61495;53.400;7.608;2023-03-14T08:45:07;98989.84;;;7.31;92.44
73267;BME280;61495;53.400;7.608;2023-03-14T08:47:33;98982.78;;;7.24;92.00
73267;BME280;61495;53.400;7.608;2023-03-14T08:49:59;98979.44;;;7.17;92.39
73267;BME280;61495;53.400;7.608;2023-03-14T08:52:24;98989.72;;;7.14;92.66
73267;BME280;61495;53.400;7.608;2023-03-14T08:54:50;99010.22;;;7.13;92.58
73267;BME280;61495;53.400;7.608;2023-03-14T08:57:15;99018.44;;;7.12;92.59
73267;BME280;61495;53.400;7.608;2023-03-14T08:59:41;99028.00;;;7.01;92.72
73267;BME280;61495;53.400;7.608;2023-03-14T09:02:09;99044.81;;;7.02;92.47
73267;BME280;61495;53.400;7.608;2023-03-14T09:04:35;99039.94;;;6.99;92.83
73267;BME280;61495;53.400;7.608;2023-03-14T09:07:01;99047.81;;;6.94;92.67
73267;BME280;61495;53.400;7.608;2023-03-14T09:09:26;99047.81;;;6.94;92.83
73267;BME280;61495;53.400;7.608;2023-03-14T09:11:57;99061.13;;;6.94;92.76
73267;BME280;61495;53.400;7.608;2023-03-14T09:14:23;99061.31;;;6.92;92.98
73267;BME280;61495;53.400;7.608;2023-03-14T09:16:49;99073.47;;;6.88;92.56
73267;BME280;61495;53.400;7.608;2023-03-14T09:19:14;99082.03;;;6.90;92.87
73267;BME280;61495;53.400;7.608;2023-03-14T09:21:39;99086.19;;;6.86;92.53
73267;BME280;61495;53.400;7.608;2023-03-14T09:24:05;99086.78;;;6.88;93.41
73267;BME280;61495;53.400;7.608;2023-03-14T09:26:31;99099.28;;;6.88;92.83
73267;BME280;61495;53.400;7.608;2023-03-14T09:28:56;99085.16;;;6.87;93.01
73267;BME280;61495;53.400;7.608;2023-03-14T09:31:22;99100.91;;;6.89;92.60
73267;BME280;61495;53.400;7.608;2023-03-14T09:33:47;99113.31;;;6.95;92.71
73267;BME280;61495;53.400;7.608;2023-03-14T09:36:12;99121.41;;;6.88;92.81
73267;BME280;61495;53.400;7.608;2023-03-14T09:38:38;99126.47;;;6.90;92.85
73267;BME280;61495;53.400;7.608;2023-03-14T09:43:42;99165.31;;;6.97;92.66
73267;BME280;61495;53.400;7.608;2023-03-14T09:46:09;99141.19;;;6.92;92.59
73267;BME280;61495;53.400;7.608;2023-03-14T09:48:36;99150.66;;;6.88;91.79
73267;BME280;61495;53.400;7.608;2023-03-14T09:51:05;99178.94;;;7.01;92.70
73267;BME280;61495;53.400;7.608;2023-03-14T09:53:44;99188.19;;;6.98;90.64
73267;BME280;61495;53.400;7.608;2023-03-14T09:56:17;99199.47;;;7.00;90.31
73267;BME280;61495;53.400;7.608;2023-03-14T09:58:45;99209.22;;;7.06;92.46
73267;BME280;61495;53.400;7.608;2023-03-14T10:01:15;99210.81;;;7.07;91.54
73267;BME280;61495;53.400;7.608;2023-03-14T10:03:44;99225.31;;;7.11;91.69
73267;BME280;61495;53.400;7.608;2023-03-14T10:06:14;99234.06;;;7.18;92.28
73267;BME280;61495;53.400;7.608;2023-03-14T10:08:43;99229.31;;;7.20;91.57
73267;BME280;61495;53.400;7.608;2023-03-14T10:11:17;99245.41;;;7.25;91.74
73267;BME280;61495;53.400;7.608;2023-03-14T10:16:28;99277.88;;;7.34;91.49
73267;BME280;61495;53.400;7.608;2023-03-14T10:19:01;99276.28;;;7.33;91.73
73267;BME280;61495;53.400;7.608;2023-03-14T10:21:28;99297.94;;;7.37;91.55
73267;BME280;61495;53.400;7.608;2023-03-14T10:23:54;99306.53;;;7.39;91.46
73267;BME280;61495;53.400;7.608;2023-03-14T10:26:28;99306.53;;;7.39;90.59
73267;BME280;61495;53.400;7.608;2023-03-14T10:29:03;99307.56;;;7.38;89.25
73267;BME280;61495;53.400;7.608;2023-03-14T10:32:06;99292.91;;;7.28;88.35
73267;BME280;61495;53.400;7.608;2023-03-14T10:34:37;99324.13;;;7.40;89.75
73267;BME280;61495;53.400;7.608;2023-03-14T10:37:22;99334.06;;;7.51;90.12
73267;BME280;61495;53.400;7.608;2023-03-14T10:39:52;99326.25;;;7.49;90.41
73267;BME280;61495;53.400;7.608;2023-03-14T10:42:28;99340.34;;;7.56;90.08
73267;BME280;61495;53.400;7.608;2023-03-14T10:44:59;99355.50;;;7.56;88.63
73267;BME280;61495;53.400;7.608;2023-03-14T10:47:27;99362.03;;;7.60;88.74
73267;BME280;61495;53.400;7.608;2023-03-14T10:49:53;99374.06;;;7.62;87.90
73267;BME280;61495;53.400;7.608;2023-03-14T10:52:23;99385.56;;;7.63;86.63
73267;BME280;61495;53.400;7.608;2023-03-14T10:54:54;99395.91;;;7.71;87.64
73267;BME280;61495;53.400;7.608;2023-03-14T10:57:21;99392.66;;;7.69;84.83
73267;BME280;61495;53.400;7.608;2023-03-14T10:59:47;99408.22;;;7.72;86.02
73267;BME280;61495;53.400;7.608;2023-03-14T11:07:44;99424.03;;;7.85;85.29
73267;BME280;61495;53.400;7.608;2023-03-14T11:15:53;99467.38;;;7.80;83.26
73267;BME280;61495;53.400;7.608;2023-03-14T11:21:20;99475.25;;;7.87;80.56
73267;BME280;61495;53.400;7.608;2023-03-14T11:26:40;99484.69;;;7.90;82.24
73267;BME280;61495;53.400;7.608;2023-03-14T11:31:47;99510.53;;;7.89;81.28
73267;BME280;61495;53.400;7.608;2023-03-14T11:36:59;99533.03;;;7.93;82.02
73267;BME280;61495;53.400;7.608;2023-03-14T11:39:31;99547.44;;;7.92;81.28
73267;BME280;61495;53.400;7.608;2023-03-14T11:42:01;99538.38;;;7.93;82.68
73267;BME280;61495;53.400;7.608;2023-03-14T11:44:35;99560.31;;;7.95;81.11
73267;BME280;61495;53.400;7.608;2023-03-14T11:47:13;99564.59;;;7.96;80.31
73267;BME280;61495;53.400;7.608;2023-03-14T11:49:56;99567.88;;;7.98;80.55
73267;BME280;61495;53.400;7.608;2023-03-14T11:52:46;99573.06;;;8.11;82.00
73267;BME280;61495;53.400;7.608;2023-03-14T11:57:58;99591.06;;;8.16;77.24
73267;BME280;61495;53.400;7.608;2023-03-14T12:00:25;99579.00;;;8.31;82.14
73267;BME280;61495;53.400;7.608;2023-03-14T12:02:52;99597.22;;;8.53;78.30
73267;BME280;61495;53.400;7.608;2023-03-14T12:10:51;99628.53;;;8.46;79.23
73267;BME280;61495;53.400;7.608;2023-03-14T12:13:29;99625.19;;;8.50;77.65
73267;BME280;61495;53.400;7.608;2023-03-14T12:15:59;99632.88;;;8.58;78.91
73267;BME280;61495;53.400;7.608;2023-03-14T12:18:29;99631.94;;;8.53;77.10
73267;BME280;61495;53.400;7.608;2023-03-14T12:20:58;99653.00;;;8.61;76.32
73267;BME280;61495;53.400;7.608;2023-03-14T12:23:26;99638.97;;;8.65;78.53
73267;BME280;61495;53.400;7.608;2023-03-14T12:28:43;99660.25;;;8.72;77.92
73267;BME280;61495;53.400;7.608;2023-03-14T12:47:49;99730.34;;;8.85;76.55
73267;BME280;61495;53.400;7.608;2023-03-14T12:50:24;99733.25;;;8.84;77.15
73267;BME280;61495;53.400;7.608;2023-03-14T12:56:06;99741.47;;;8.82;75.99
73267;BME280;61495;53.400;7.608;2023-03-14T12:58:59;99747.56;;;8.89;75.64
73267;BME280;61495;53.400;7.608;2023-03-14T13:01:33;99756.97;;;8.92;77.38
73267;BME280;61495;53.400;7.608;2023-03-14T13:04:07;99750.81;;;8.91;76.00
73267;BME280;61495;53.400;7.608;2023-03-14T13:11:51;99781.91;;;9.04;76.24
73267;BME280;61495;53.400;7.608;2023-03-14T13:14:18;99777.16;;;9.06;75.58
73267;BME280;61495;53.400;7.608;2023-03-14T13:16:48;99796.47;;;9.08;74.06
73267;BME280;61495;53.400;7.608;2023-03-14T13:19:19;99807.75;;;9.10;75.49
73267;BME280;61495;53.400;7.608;2023-03-14T13:21:45;99822.75;;;9.11;76.61
73267;BME280;61495;53.400;7.608;2023-03-14T13:24:21;99825.41;;;9.11;72.15
73267;BME280;61495;53.400;7.608;2023-03-14T13:26:47;99808.94;;;9.14;75.36
73267;BME280;61495;53.400;7.608;2023-03-14T13:29:24;99820.53;;;9.08;74.20
73267;BME280;61495;53.400;7.608;2023-03-14T13:31:51;99826.16;;;9.18;74.34
73267;BME280;61495;53.400;7.608;2023-03-14T13:34:18;99814.06;;;9.16;75.07
73267;BME280;61495;53.400;7.608;2023-03-14T13:36:44;99849.09;;;9.26;76.03
73267;BME280;61495;53.400;7.608;2023-03-14T13:39:16;99849.16;;;9.19;75.72
73267;BME280;61495;53.400;7.608;2023-03-14T13:41:42;99863.13;;;9.21;74.96
73267;BME280;61495;53.400;7.608;2023-03-14T13:44:13;99860.28;;;9.16;75.47
73267;BME280;61495;53.400;7.608;2023-03-14T13:46:40;99874.19;;;9.25;75.80
73267;BME280;61495;53.400;7.608;2023-03-14T13:49:10;99880.94;;;9.27;75.64
73267;BME280;61495;53.400;7.608;2023-03-14T13:51:39;99885.38;;;9.15;75.29
73267;BME280;61495;53.400;7.608;2023-03-14T13:54:13;99871.72;;;9.05;75.80
73267;BME280;61495;53.400;7.608;2023-03-14T13:56:39;99901.03;;;9.12;75.94
73267;BME280;61495;53.400;7.608;2023-03-14T13:59:04;99903.16;;;9.03;75.60
73267;BME280;61495;53.400;7.608;2023-03-14T14:01:33;99918.75;;;9.06;76.01
73267;BME280;61495;53.400;7.608;2023-03-14T14:04:20;99919.28;;;8.97;74.81
73267;BME280;61495;53.400;7.608;2023-03-14T14:06:53;99928.97;;;8.91;75.03
73267;BME280;61495;53.400;7.608;2023-03-14T14:09:35;99929.63;;;8.86;74.30
73267;BME280;61495;53.400;7.608;2023-03-14T14:12:08;99932.78;;;8.77;73.43
73267;BME280;61495;53.400;7.608;2023-03-14T14:14:45;99945.16;;;8.71;73.77
73267;BME280;61495;53.400;7.608;2023-03-14T14:17:16;99953.97;;;8.72;74.40
73267;BME280;61495;53.400;7.608;2023-03-14T14:19:43;99966.34;;;8.66;72.59
73267;BME280;61495;53.400;7.608;2023-03-14T14:22:10;99970.44;;;8.69;74.21
73267;BME280;61495;53.400;7.608;2023-03-14T14:24:36;99987.50;;;8.61;71.66